createdAt,value
2019-03-01T00:00:20.461Z,1001.6
2019-03-01T00:01:23.202Z,1001.6
2019-03-01T00:02:26.060Z,1001.7
2019-03-01T00:03:28.568Z,1001.6
2019-03-01T00:04:30.697Z,1001.6
2019-03-01T00:05:33.821Z,1001.6
2019-03-01T00:06:35.946Z,1001.5
2019-03-01T00:07:38.049Z,1001.5
2019-03-01T00:08:40.166Z,1001.5
2019-03-01T00:09:42.287Z,1001.4
2019-03-01T00:10:45.086Z,1001.5
2019-03-01T00:11:47.227Z,1001.4
2019-03-01T00:12:49.630Z,1001.5
2019-03-01T00:13:52.476Z,1001.5
2019-03-01T00:14:55.276Z,1001.5
2019-03-01T00:15:57.418Z,1001.6
2019-03-01T00:16:59.527Z,1001.5
2019-03-01T00:18:01.650Z,1001.5
2019-03-01T00:19:03.784Z,1001.5
2019-03-01T00:20:05.891Z,1001.5
2019-03-01T00:21:08.443Z,1001.6
2019-03-01T00:22:10.559Z,1001.5
2019-03-01T00:23:12.682Z,1001.5
2019-03-01T00:24:15.228Z,1001.5
2019-03-01T00:25:17.360Z,1001.5
2019-03-01T00:26:20.034Z,1001.4
2019-03-01T00:27:22.165Z,1001.5
2019-03-01T00:28:24.295Z,1001.4
2019-03-01T00:29:26.421Z,1001.5
2019-03-01T00:30:28.531Z,1001.4
2019-03-01T00:31:30.662Z,1001.5
2019-03-01T00:32:33.069Z,1001.5
2019-03-01T00:33:35.174Z,1001.5
2019-03-01T00:34:37.289Z,1001.5
2019-03-01T00:35:39.393Z,1001.5
2019-03-01T00:36:41.510Z,1001.5
2019-03-01T00:37:43.635Z,1001.5
2019-03-01T00:38:45.756Z,1001.5
2019-03-01T00:39:48.821Z,1001.5
2019-03-01T00:40:51.013Z,1001.5
2019-03-01T00:41:53.123Z,1001.5
2019-03-01T00:42:55.601Z,1001.5
2019-03-01T00:43:58.096Z,1001.5
2019-03-01T00:45:00.647Z,1001.5
2019-03-01T00:46:03.052Z,1001.5
2019-03-01T00:47:05.787Z,1001.5
2019-03-01T00:48:07.892Z,1001.5
2019-03-01T00:49:10.330Z,1001.5
2019-03-01T00:50:12.718Z,1001.5
2019-03-01T00:51:14.840Z,1001.5
2019-03-01T00:52:16.984Z,1001.6
2019-03-01T00:53:19.776Z,1001.5
2019-03-01T00:54:22.192Z,1001.5
2019-03-01T00:55:24.311Z,1001.5
2019-03-01T00:56:26.750Z,1001.5
2019-03-01T00:57:28.852Z,1001.5
2019-03-01T00:58:31.258Z,1001.5
2019-03-01T00:59:33.763Z,1001.5
2019-03-01T01:00:35.885Z,1001.5
2019-03-01T01:01:38.018Z,1001.5
2019-03-01T01:02:40.172Z,1001.5
2019-03-01T01:03:42.593Z,1001.4
2019-03-01T01:04:44.719Z,1001.4
2019-03-01T01:05:46.831Z,1001.3
2019-03-01T01:06:48.942Z,1001.3
2019-03-01T01:07:51.646Z,1001.3
2019-03-01T01:08:54.147Z,1001.3
2019-03-01T01:09:56.266Z,1001.3
2019-03-01T01:10:58.390Z,1001.3
2019-03-01T01:12:00.509Z,1001.3
2019-03-01T01:13:03.203Z,1001.3
2019-03-01T01:14:05.386Z,1001.3
2019-03-01T01:15:07.547Z,1001.2
2019-03-01T01:16:09.670Z,1001.2
2019-03-01T01:17:11.806Z,1001.2
2019-03-01T01:18:14.200Z,1001.2
2019-03-01T01:19:16.332Z,1001.2
2019-03-01T01:20:18.484Z,1001.2
2019-03-01T01:21:20.606Z,1001.1
2019-03-01T01:22:22.731Z,1001.2
2019-03-01T01:23:24.857Z,1001.2
2019-03-01T01:24:26.974Z,1001.2
2019-03-01T01:25:29.397Z,1001.2
2019-03-01T01:26:31.506Z,1001.2
2019-03-01T01:27:34.233Z,1001.1
2019-03-01T01:28:36.346Z,1001.2
2019-03-01T01:29:38.476Z,1001.1
2019-03-01T01:30:40.584Z,1001
2019-03-01T01:31:42.745Z,1001.1
2019-03-01T01:32:44.855Z,1001.1
2019-03-01T01:33:46.984Z,1001
2019-03-01T01:34:49.121Z,1001
2019-03-01T01:35:51.618Z,1001
2019-03-01T01:36:53.736Z,1000.9
2019-03-01T01:37:55.865Z,1001
2019-03-01T01:38:57.973Z,1000.9
2019-03-01T01:40:00.391Z,1000.9
2019-03-01T01:41:02.879Z,1000.9
2019-03-01T01:42:04.987Z,1000.9
2019-03-01T01:43:07.098Z,1000.9
2019-03-01T01:44:09.504Z,1000.9
2019-03-01T01:45:11.633Z,1001
2019-03-01T01:46:14.425Z,1000.9
2019-03-01T01:47:16.565Z,1000.9
2019-03-01T01:48:19.041Z,1000.9
2019-03-01T01:49:21.158Z,1000.9
2019-03-01T01:50:23.305Z,1000.9
2019-03-01T01:51:26.132Z,1000.9
2019-03-01T01:52:28.586Z,1000.9
2019-03-01T01:53:30.697Z,1000.9
2019-03-01T01:54:33.419Z,1000.9
2019-03-01T01:55:36.210Z,1000.9
2019-03-01T01:56:39.024Z,1000.8
2019-03-01T01:57:41.529Z,1000.8
2019-03-01T01:58:43.643Z,1000.8
2019-03-01T01:59:46.102Z,1000.8
2019-03-01T02:00:48.513Z,1000.8
2019-03-01T02:01:50.668Z,1000.8
2019-03-01T02:02:52.788Z,1000.8
2019-03-01T02:03:54.922Z,1000.8
2019-03-01T02:04:57.031Z,1000.8
2019-03-01T02:05:59.549Z,1000.8
2019-03-01T02:07:01.953Z,1000.8
2019-03-01T02:08:04.446Z,1000.8
2019-03-01T02:09:07.270Z,1000.8
2019-03-01T02:10:09.781Z,1000.8
2019-03-01T02:11:12.197Z,1000.8
2019-03-01T02:12:14.311Z,1000.7
2019-03-01T02:13:16.441Z,1000.7
2019-03-01T02:14:18.544Z,1000.7
2019-03-01T02:15:20.673Z,1000.7
2019-03-01T02:16:22.793Z,1000.7
2019-03-01T02:17:25.182Z,1000.7
2019-03-01T02:18:27.307Z,1000.7
2019-03-01T02:19:29.424Z,1000.7
2019-03-01T02:20:31.521Z,1000.7
2019-03-01T02:21:33.646Z,1000.8
2019-03-01T02:22:35.765Z,1000.8
2019-03-01T02:23:40.401Z,1000.8
2019-03-01T02:24:42.601Z,1000.8
2019-03-01T02:25:44.725Z,1000.7
2019-03-01T02:26:46.851Z,1000.7
2019-03-01T02:27:48.956Z,1000.7
2019-03-01T02:28:51.087Z,1000.6
2019-03-01T02:29:53.503Z,1000.6
2019-03-01T02:30:55.624Z,1000.6
2019-03-01T02:31:58.388Z,1000.6
2019-03-01T02:33:01.514Z,1000.5
2019-03-01T02:34:04.361Z,1000.5
2019-03-01T02:35:06.478Z,1000.5
2019-03-01T02:36:09.613Z,1000.5
2019-03-01T02:37:12.815Z,1000.5
2019-03-01T02:38:14.992Z,1000.5
2019-03-01T02:39:17.408Z,1000.5
2019-03-01T02:40:19.987Z,1000.5
2019-03-01T02:41:22.831Z,1000.4
2019-03-01T02:42:25.082Z,1000.5
2019-03-01T02:43:27.839Z,1000.5
2019-03-01T02:44:29.979Z,1000.4
2019-03-01T02:45:32.203Z,1000.4
2019-03-01T02:46:34.636Z,1000.4
2019-03-01T02:47:36.788Z,1000.4
2019-03-01T02:48:38.935Z,1000.4
2019-03-01T02:49:41.438Z,1000.4
2019-03-01T02:50:43.943Z,1000.4
2019-03-01T02:51:46.083Z,1000.4
2019-03-01T02:52:48.652Z,1000.4
2019-03-01T02:53:51.770Z,1000.4
2019-03-01T02:54:53.914Z,1000.4
2019-03-01T02:55:56.041Z,1000.4
2019-03-01T02:56:58.178Z,1000.4
2019-03-01T02:58:01.562Z,1000.3
2019-03-01T02:59:03.713Z,1000.3
2019-03-01T03:00:05.849Z,1000.3
2019-03-01T03:01:07.967Z,1000.3
2019-03-01T03:02:10.404Z,1000.3
2019-03-01T03:03:12.532Z,1000.2
2019-03-01T03:04:14.740Z,1000.3
2019-03-01T03:05:17.453Z,1000.3
2019-03-01T03:06:19.574Z,1000.2
2019-03-01T03:07:22.011Z,1000.3
2019-03-01T03:08:24.926Z,1000.2
2019-03-01T03:09:27.377Z,1000.2
2019-03-01T03:10:30.658Z,1000.2
2019-03-01T03:11:33.473Z,1000.3
2019-03-01T03:12:35.894Z,1000.3
2019-03-01T03:13:38.356Z,1000.2
2019-03-01T03:14:41.068Z,1000.2
2019-03-01T03:15:43.228Z,1000.2
2019-03-01T03:16:45.848Z,1000.2
2019-03-01T03:17:48.347Z,1000.2
2019-03-01T03:18:51.182Z,1000.2
2019-03-01T03:19:53.326Z,1000.2
2019-03-01T03:20:56.111Z,1000.1
2019-03-01T03:21:59.350Z,1000.2
2019-03-01T03:23:02.164Z,1000.1
2019-03-01T03:24:05.024Z,1000.1
2019-03-01T03:25:07.558Z,1000.1
2019-03-01T03:26:10.313Z,1000.1
2019-03-01T03:27:12.449Z,1000
2019-03-01T03:28:14.857Z,1000
2019-03-01T03:29:17.937Z,1000
2019-03-01T03:30:20.455Z,1000
2019-03-01T03:31:23.032Z,1000
2019-03-01T03:32:25.595Z,1000
2019-03-01T03:33:28.825Z,1000
2019-03-01T03:34:31.364Z,1000
2019-03-01T03:35:33.947Z,1000
2019-03-01T03:36:36.461Z,999.9
2019-03-01T03:37:39.480Z,999.9
2019-03-01T03:38:41.629Z,999.9
2019-03-01T03:39:44.010Z,1000
2019-03-01T03:40:46.505Z,999.9
2019-03-01T03:41:49.351Z,999.9
2019-03-01T03:42:51.482Z,999.9
2019-03-01T03:43:53.599Z,999.9
2019-03-01T03:44:56.412Z,999.9
2019-03-01T03:45:58.850Z,999.9
2019-03-01T03:47:00.977Z,999.9
2019-03-01T03:48:03.419Z,999.9
2019-03-01T03:49:06.243Z,999.8
2019-03-01T03:50:08.380Z,999.9
2019-03-01T03:51:10.917Z,999.9
2019-03-01T03:52:13.828Z,999.9
2019-03-01T03:53:16.242Z,999.9
2019-03-01T03:54:18.366Z,999.8
2019-03-01T03:55:20.812Z,999.9
2019-03-01T03:56:23.904Z,999.9
2019-03-01T03:57:26.425Z,999.9
2019-03-01T03:58:29.503Z,999.8
2019-03-01T03:59:31.961Z,999.9
2019-03-01T04:00:34.474Z,999.9
2019-03-01T04:01:36.897Z,999.9
2019-03-01T04:02:39.048Z,999.9
2019-03-01T04:03:41.593Z,999.8
2019-03-01T04:04:44.116Z,999.8
2019-03-01T04:05:46.521Z,999.9
2019-03-01T04:06:48.652Z,999.8
2019-03-01T04:07:51.830Z,999.9
2019-03-01T04:08:53.983Z,999.9
2019-03-01T04:09:56.778Z,999.9
2019-03-01T04:10:59.648Z,999.9
2019-03-01T04:12:03.046Z,999.9
2019-03-01T04:13:05.854Z,999.9
2019-03-01T04:14:08.001Z,999.9
2019-03-01T04:15:10.467Z,999.8
2019-03-01T04:16:13.173Z,999.9
2019-03-01T04:17:15.316Z,999.8
2019-03-01T04:18:18.442Z,999.8
2019-03-01T04:19:21.392Z,999.8
2019-03-01T04:20:23.807Z,999.8
2019-03-01T04:21:26.413Z,999.8
2019-03-01T04:22:29.098Z,999.9
2019-03-01T04:23:31.225Z,999.8
2019-03-01T04:24:34.057Z,999.9
2019-03-01T04:25:36.472Z,999.9
2019-03-01T04:26:38.891Z,999.9
2019-03-01T04:27:41.030Z,999.9
2019-03-01T04:28:43.875Z,1000
2019-03-01T04:29:46.009Z,1000
2019-03-01T04:30:48.480Z,1000
2019-03-01T04:31:50.609Z,1000
2019-03-01T04:32:53.405Z,1000
2019-03-01T04:33:56.216Z,1000
2019-03-01T04:34:58.671Z,1000
2019-03-01T04:36:01.081Z,1000
2019-03-01T04:37:03.249Z,1000.1
2019-03-01T04:38:05.362Z,1000
2019-03-01T04:39:07.878Z,1000
2019-03-01T04:40:10.000Z,1000.1
2019-03-01T04:41:12.123Z,1000
2019-03-01T04:42:14.222Z,1000
2019-03-01T04:43:16.355Z,1000
2019-03-01T04:44:18.475Z,1000
2019-03-01T04:45:20.588Z,1000.1
2019-03-01T04:46:22.722Z,1000
2019-03-01T04:47:25.216Z,1000.1
2019-03-01T04:48:27.641Z,1000
2019-03-01T04:49:30.517Z,1000
2019-03-01T04:50:32.709Z,1000
2019-03-01T04:51:40.808Z,1000
2019-03-01T04:52:42.935Z,1000
2019-03-01T04:53:45.069Z,999.9
2019-03-01T04:54:47.230Z,1000
2019-03-01T04:55:49.351Z,999.9
2019-03-01T04:56:51.468Z,999.9
2019-03-01T04:57:53.589Z,999.9
2019-03-01T04:58:56.104Z,999.9
2019-03-01T04:59:58.221Z,999.9
2019-03-01T05:01:00.727Z,999.9
2019-03-01T05:02:02.859Z,999.9
2019-03-01T05:03:05.271Z,999.9
2019-03-01T05:04:07.373Z,999.9
2019-03-01T05:05:09.818Z,999.9
2019-03-01T05:06:12.233Z,999.9
2019-03-01T05:07:14.343Z,1000
2019-03-01T05:08:16.462Z,1000
2019-03-01T05:09:19.208Z,999.9
2019-03-01T05:10:21.640Z,999.9
2019-03-01T05:11:24.166Z,999.9
2019-03-01T05:12:26.285Z,1000
2019-03-01T05:13:28.400Z,1000
2019-03-01T05:14:30.522Z,1000
2019-03-01T05:15:32.934Z,1000
2019-03-01T05:16:35.067Z,1000
2019-03-01T05:17:37.187Z,1000
2019-03-01T05:18:39.585Z,1000
2019-03-01T05:19:41.721Z,1000
2019-03-01T05:20:43.850Z,1000
2019-03-01T05:21:46.271Z,1000
2019-03-01T05:22:48.411Z,1000
2019-03-01T05:23:50.846Z,1000
2019-03-01T05:24:53.232Z,1000
2019-03-01T05:25:55.362Z,1000
2019-03-01T05:26:57.482Z,1000
2019-03-01T05:27:59.582Z,1000
2019-03-01T05:29:01.725Z,999.9
2019-03-01T05:30:04.909Z,999.9
2019-03-01T05:31:07.295Z,999.9
2019-03-01T05:32:09.411Z,999.9
2019-03-01T05:33:11.536Z,999.9
2019-03-01T05:34:13.641Z,1000
2019-03-01T05:35:16.069Z,999.9
2019-03-01T05:36:18.588Z,1000
2019-03-01T05:37:20.695Z,1000
2019-03-01T05:38:23.089Z,1000
2019-03-01T05:39:25.252Z,1000
2019-03-01T05:40:27.425Z,1000
2019-03-01T05:41:29.890Z,1000.1
2019-03-01T05:42:32.403Z,1000
2019-03-01T05:43:34.807Z,1000
2019-03-01T05:44:36.948Z,1000
2019-03-01T05:45:39.069Z,1000.1
2019-03-01T05:46:41.185Z,1000.1
2019-03-01T05:47:43.296Z,1000.1
2019-03-01T05:48:45.833Z,1000.1
2019-03-01T05:49:47.959Z,1000.1
2019-03-01T05:50:50.075Z,1000.1
2019-03-01T05:51:52.872Z,1000.1
2019-03-01T05:52:55.008Z,1000.1
2019-03-01T05:53:57.122Z,1000.1
2019-03-01T05:54:59.235Z,1000.1
2019-03-01T05:56:01.492Z,1000.1
2019-03-01T05:57:03.625Z,1000.1
2019-03-01T05:58:05.731Z,1000.1
2019-03-01T05:59:18.508Z,1000.1
2019-03-01T06:00:20.634Z,1000.1
2019-03-01T06:01:22.751Z,1000.2
2019-03-01T06:02:24.932Z,1000.2
2019-03-01T06:03:27.049Z,1000.2
2019-03-01T06:04:29.543Z,1000.1
2019-03-01T06:05:31.663Z,1000.1
2019-03-01T06:06:33.808Z,1000.1
2019-03-01T06:07:36.516Z,1000.1
2019-03-01T06:08:39.029Z,1000.1
2019-03-01T06:09:41.153Z,1000.1
2019-03-01T06:10:43.574Z,1000.2
2019-03-01T06:11:45.700Z,1000.1
2019-03-01T06:12:47.827Z,1000.2
2019-03-01T06:13:49.925Z,1000.2
2019-03-01T06:14:52.339Z,1000.1
2019-03-01T06:15:54.462Z,1000.1
2019-03-01T06:16:56.875Z,1000.1
2019-03-01T06:17:59.296Z,1000
2019-03-01T06:19:01.404Z,1000.1
2019-03-01T06:20:03.918Z,1000.1
2019-03-01T06:21:06.696Z,1000.1
2019-03-01T06:22:09.242Z,1000.1
2019-03-01T06:23:11.911Z,1000.1
2019-03-01T06:24:14.015Z,1000.1
2019-03-01T06:25:16.426Z,1000
2019-03-01T06:26:19.520Z,1000
2019-03-01T06:27:21.683Z,1000
2019-03-01T06:28:24.083Z,1000
2019-03-01T06:29:26.197Z,999.9
2019-03-01T06:30:28.328Z,999.9
2019-03-01T06:31:30.441Z,999.9
2019-03-01T06:32:32.568Z,999.9
2019-03-01T06:33:34.695Z,999.9
2019-03-01T06:34:37.098Z,999.9
2019-03-01T06:35:39.226Z,1000
2019-03-01T06:36:41.358Z,1000
2019-03-01T06:37:43.462Z,1000
2019-03-01T06:38:45.575Z,1000
2019-03-01T06:39:48.094Z,1000.1
2019-03-01T06:40:50.216Z,1000.1
2019-03-01T06:41:52.755Z,1000.1
2019-03-01T06:42:55.444Z,1000.1
2019-03-01T06:43:57.558Z,1000.1
2019-03-01T06:44:59.676Z,1000.1
2019-03-01T06:46:02.904Z,1000.1
2019-03-01T06:47:05.423Z,1000.2
2019-03-01T06:48:07.839Z,1000.1
2019-03-01T06:49:09.968Z,1000
2019-03-01T06:50:13.386Z,1000.1
2019-03-01T06:51:15.529Z,1000.1
2019-03-01T06:52:17.643Z,1000.1
2019-03-01T06:53:19.757Z,1000
2019-03-01T06:54:21.865Z,1000.1
2019-03-01T06:55:23.995Z,1000.1
2019-03-01T06:56:26.496Z,1000.1
2019-03-01T06:57:28.658Z,1000.2
2019-03-01T06:58:30.792Z,1000.2
2019-03-01T06:59:32.892Z,1000.2
2019-03-01T07:00:35.022Z,1000.2
2019-03-01T07:01:37.727Z,1000.2
2019-03-01T07:02:39.853Z,1000.2
2019-03-01T07:03:42.252Z,1000.1
2019-03-01T07:04:44.660Z,1000.2
2019-03-01T07:05:46.773Z,1000.2
2019-03-01T07:06:49.173Z,1000.2
2019-03-01T07:07:51.328Z,1000.1
2019-03-01T07:08:53.439Z,1000.1
2019-03-01T07:09:55.958Z,1000.2
2019-03-01T07:10:58.085Z,1000.2
2019-03-01T07:12:00.209Z,1000.2
2019-03-01T07:13:02.912Z,1000.2
2019-03-01T07:14:05.042Z,1000.2
2019-03-01T07:15:09.039Z,1000.2
2019-03-01T07:16:11.165Z,1000.2
2019-03-01T07:17:13.685Z,1000.2
2019-03-01T07:18:16.101Z,1000.2
2019-03-01T07:19:18.201Z,1000.2
2019-03-01T07:20:20.716Z,1000.2
2019-03-01T07:21:23.169Z,1000.2
2019-03-01T07:22:25.609Z,1000.3
2019-03-01T07:23:37.230Z,1000.3
2019-03-01T07:24:39.654Z,1000.3
2019-03-01T07:25:42.819Z,1000.3
2019-03-01T07:26:44.942Z,1000.3
2019-03-01T07:27:47.370Z,1000.3
2019-03-01T07:28:49.481Z,1000.4
2019-03-01T07:29:51.632Z,1000.3
2019-03-01T07:30:53.752Z,1000.3
2019-03-01T07:31:55.860Z,1000.4
2019-03-01T07:32:58.284Z,1000.4
2019-03-01T07:34:00.682Z,1000.4
2019-03-01T07:35:03.096Z,1000.5
2019-03-01T07:36:05.621Z,1000.5
2019-03-01T07:37:07.755Z,1000.5
2019-03-01T07:38:09.862Z,1000.5
2019-03-01T07:39:12.293Z,1000.5
2019-03-01T07:40:14.438Z,1000.6
2019-03-01T07:41:16.854Z,1000.5
2019-03-01T07:42:18.988Z,1000.5
2019-03-01T07:43:21.104Z,1000.5
2019-03-01T07:44:23.235Z,1000.5
2019-03-01T07:45:25.650Z,1000.6
2019-03-01T07:46:27.768Z,1000.5
2019-03-01T07:47:30.177Z,1000.5
2019-03-01T07:48:32.861Z,1000.5
2019-03-01T07:49:34.980Z,1000.6
2019-03-01T07:50:37.107Z,1000.6
2019-03-01T07:51:39.228Z,1000.6
2019-03-01T07:52:41.348Z,1000.6
2019-03-01T07:53:43.790Z,1000.6
2019-03-01T07:54:45.903Z,1000.6
2019-03-01T07:55:55.325Z,1000.6
2019-03-01T07:56:57.773Z,1000.6
2019-03-01T07:58:00.189Z,1000.6
2019-03-01T07:59:02.700Z,1000.6
2019-03-01T08:00:04.830Z,1000.7
2019-03-01T08:01:07.244Z,1000.6
2019-03-01T08:02:10.034Z,1000.6
2019-03-01T08:03:15.977Z,1000.6
2019-03-01T08:04:18.131Z,1000.6
2019-03-01T08:05:20.239Z,1000.6
2019-03-01T08:06:22.381Z,1000.6
2019-03-01T08:07:24.835Z,1000.6
2019-03-01T08:08:27.642Z,1000.7
2019-03-01T08:09:29.774Z,1000.6
2019-03-01T08:10:31.909Z,1000.6
2019-03-01T08:11:34.021Z,1000.6
2019-03-01T08:12:43.459Z,1000.6
2019-03-01T08:13:45.670Z,1000.7
2019-03-01T08:14:55.365Z,1000.6
2019-03-01T08:15:57.497Z,1000.7
2019-03-01T08:16:59.610Z,1000.7
2019-03-01T08:18:08.108Z,1000.8
2019-03-01T08:19:11.613Z,1000.7
2019-03-01T08:20:25.089Z,1000.8
2019-03-01T08:21:27.215Z,1000.8
2019-03-01T08:22:29.628Z,1000.8
2019-03-01T08:23:35.973Z,1000.8
2019-03-01T08:24:38.190Z,1000.8
2019-03-01T08:25:40.342Z,1000.8
2019-03-01T08:26:42.502Z,1000.9
2019-03-01T08:27:49.491Z,1000.9
2019-03-01T08:28:58.344Z,1001
2019-03-01T08:30:02.302Z,1000.9
2019-03-01T08:31:12.541Z,1000.9
2019-03-01T08:32:14.681Z,1000.9
2019-03-01T08:33:17.098Z,1001
2019-03-01T08:34:19.234Z,1001
2019-03-01T08:35:21.342Z,1000.9
2019-03-01T08:36:30.137Z,1000.9
2019-03-01T08:37:32.543Z,1000.9
2019-03-01T08:38:34.665Z,1001
2019-03-01T08:39:40.731Z,1001
2019-03-01T08:40:42.950Z,1001
2019-03-01T08:41:52.178Z,1001
2019-03-01T08:42:54.869Z,1001
2019-03-01T08:43:57.674Z,1000.9
2019-03-01T08:44:59.783Z,1001
2019-03-01T08:46:09.310Z,1001
2019-03-01T08:47:12.496Z,1001
2019-03-01T08:48:14.897Z,1001
2019-03-01T08:49:17.043Z,1001
2019-03-01T08:50:19.153Z,1001
2019-03-01T08:51:26.434Z,1001
2019-03-01T08:52:29.607Z,1001
2019-03-01T08:53:31.741Z,1001.1
2019-03-01T08:54:33.843Z,1001.1
2019-03-01T08:55:39.824Z,1001.1
2019-03-01T08:56:42.029Z,1001.2
2019-03-01T08:57:52.659Z,1001.1
2019-03-01T08:58:54.785Z,1001.1
2019-03-01T08:59:56.898Z,1001.2
2019-03-01T09:01:03.838Z,1001.2
2019-03-01T09:02:12.278Z,1001.2
2019-03-01T09:03:22.115Z,1001.1
2019-03-01T09:04:25.164Z,1001.2
2019-03-01T09:05:27.271Z,1001.1
2019-03-01T09:06:29.693Z,1001.2
2019-03-01T09:07:32.190Z,1001.2
2019-03-01T09:08:34.309Z,1001.2
2019-03-01T09:09:36.710Z,1001.2
2019-03-01T09:10:38.845Z,1001.1
2019-03-01T09:11:45.303Z,1001.2
2019-03-01T09:12:47.493Z,1001.2
2019-03-01T09:13:49.635Z,1001.2
2019-03-01T09:14:52.048Z,1001.2
2019-03-01T09:15:54.173Z,1001.2
2019-03-01T09:16:56.597Z,1001.2
2019-03-01T09:17:58.733Z,1001.2
2019-03-01T09:19:01.231Z,1001.2
2019-03-01T09:20:03.371Z,1001.2
2019-03-01T09:21:12.130Z,1001.2
2019-03-01T09:22:16.078Z,1001.2
2019-03-01T09:23:27.365Z,1001.2
2019-03-01T09:24:30.275Z,1001.2
2019-03-01T09:25:32.673Z,1001.2
2019-03-01T09:26:35.970Z,1001.2
2019-03-01T09:27:38.146Z,1001.2
2019-03-01T09:28:40.281Z,1001.2
2019-03-01T09:29:42.984Z,1001.2
2019-03-01T09:30:45.092Z,1001.2
2019-03-01T09:31:47.209Z,1001.3
2019-03-01T09:32:49.337Z,1001.2
2019-03-01T09:33:57.308Z,1001.2
2019-03-01T09:34:59.527Z,1001.2
2019-03-01T09:36:10.070Z,1001.3
2019-03-01T09:37:15.606Z,1001.3
2019-03-01T09:38:17.721Z,1001.3
2019-03-01T09:39:20.151Z,1001.3
2019-03-01T09:40:28.799Z,1001.3
2019-03-01T09:41:32.081Z,1001.4
2019-03-01T09:42:34.205Z,1001.4
2019-03-01T09:43:36.740Z,1001.4
2019-03-01T09:44:39.565Z,1001.4
2019-03-01T09:45:42.103Z,1001.5
2019-03-01T09:46:51.037Z,1001.5
2019-03-01T09:47:53.154Z,1001.5
2019-03-01T09:48:55.566Z,1001.5
2019-03-01T09:50:01.283Z,1001.5
2019-03-01T09:51:03.439Z,1001.5
2019-03-01T09:52:12.850Z,1001.5
2019-03-01T09:53:14.984Z,1001.6
2019-03-01T09:54:17.092Z,1001.6
2019-03-01T09:55:19.505Z,1001.6
2019-03-01T09:56:21.625Z,1001.6
2019-03-01T09:57:26.146Z,1001.6
2019-03-01T09:58:28.290Z,1001.6
2019-03-01T09:59:30.413Z,1001.6
2019-03-01T10:00:32.832Z,1001.6
2019-03-01T10:01:34.952Z,1001.6
2019-03-01T10:02:37.083Z,1001.6
2019-03-01T10:03:39.257Z,1001.6
2019-03-01T10:04:41.385Z,1001.6
2019-03-01T10:05:43.550Z,1001.6
2019-03-01T10:06:45.659Z,1001.6
2019-03-01T10:07:47.770Z,1001.6
2019-03-01T10:08:49.922Z,1001.7
2019-03-01T10:09:52.407Z,1001.6
2019-03-01T10:10:54.539Z,1001.6
2019-03-01T10:11:57.070Z,1001.7
2019-03-01T10:12:59.180Z,1001.7
2019-03-01T10:14:01.327Z,1001.6
2019-03-01T10:15:03.464Z,1001.6
2019-03-01T10:16:05.589Z,1001.6
2019-03-01T10:17:07.706Z,1001.7
2019-03-01T10:18:10.231Z,1001.6
2019-03-01T10:19:12.666Z,1001.6
2019-03-01T10:20:15.460Z,1001.6
2019-03-01T10:21:17.850Z,1001.7
2019-03-01T10:22:19.988Z,1001.6
2019-03-01T10:23:22.100Z,1001.7
2019-03-01T10:24:24.610Z,1001.7
2019-03-01T10:25:26.727Z,1001.7
2019-03-01T10:26:28.865Z,1001.7
2019-03-01T10:27:30.968Z,1001.8
2019-03-01T10:28:33.089Z,1001.8
2019-03-01T10:29:35.212Z,1001.8
2019-03-01T10:30:37.314Z,1001.8
2019-03-01T10:31:39.745Z,1001.8
2019-03-01T10:32:41.865Z,1001.9
2019-03-01T10:33:43.971Z,1001.9
2019-03-01T10:34:46.086Z,1001.9
2019-03-01T10:35:48.219Z,1001.9
2019-03-01T10:36:50.726Z,1001.9
2019-03-01T10:37:54.349Z,1001.9
2019-03-01T10:38:56.767Z,1001.9
2019-03-01T10:39:59.159Z,1001.9
2019-03-01T10:41:01.378Z,1001.9
2019-03-01T10:42:03.508Z,1001.9
2019-03-01T10:43:05.606Z,1001.9
2019-03-01T10:44:07.724Z,1001.9
2019-03-01T10:45:09.843Z,1001.9
2019-03-01T10:46:11.955Z,1002
2019-03-01T10:47:14.086Z,1002
2019-03-01T10:48:16.216Z,1002
2019-03-01T10:49:18.339Z,1002
2019-03-01T10:50:20.452Z,1002
2019-03-01T10:51:23.168Z,1002
2019-03-01T10:52:25.279Z,1001.9
2019-03-01T10:53:27.503Z,1002
2019-03-01T10:54:29.637Z,1001.9
2019-03-01T10:55:31.753Z,1001.9
2019-03-01T10:56:34.149Z,1002
2019-03-01T10:57:36.284Z,1002
2019-03-01T10:58:38.411Z,1002
2019-03-01T10:59:40.539Z,1002
2019-03-01T11:00:42.706Z,1002
2019-03-01T11:01:44.833Z,1002
2019-03-01T11:02:46.961Z,1002
2019-03-01T11:03:49.446Z,1002.1
2019-03-01T11:04:51.594Z,1002
2019-03-01T11:05:53.709Z,1002.1
2019-03-01T11:06:55.820Z,1002.2
2019-03-01T11:07:57.991Z,1002.2
2019-03-01T11:09:00.128Z,1002.2
2019-03-01T11:10:02.253Z,1002.2
2019-03-01T11:11:04.661Z,1002.2
2019-03-01T11:12:06.801Z,1002.3
2019-03-01T11:13:09.381Z,1002.3
2019-03-01T11:14:11.574Z,1002.3
2019-03-01T11:15:13.707Z,1002.3
2019-03-01T11:16:15.842Z,1002.3
2019-03-01T11:17:18.049Z,1002.3
2019-03-01T11:18:20.165Z,1002.2
2019-03-01T11:19:22.283Z,1002.3
2019-03-01T11:20:24.418Z,1002.3
2019-03-01T11:21:26.568Z,1002.3
2019-03-01T11:22:28.696Z,1002.3
2019-03-01T11:23:30.809Z,1002.3
2019-03-01T11:24:32.980Z,1002.3
2019-03-01T11:25:35.083Z,1002.3
2019-03-01T11:26:37.219Z,1002.3
2019-03-01T11:27:39.359Z,1002.4
2019-03-01T11:28:41.517Z,1002.4
2019-03-01T11:29:43.654Z,1002.4
2019-03-01T11:30:46.070Z,1002.3
2019-03-01T11:31:48.540Z,1002.4
2019-03-01T11:32:51.322Z,1002.3
2019-03-01T11:33:53.445Z,1002.3
2019-03-01T11:34:55.583Z,1002.2
2019-03-01T11:35:57.725Z,1002.3
2019-03-01T11:36:59.828Z,1002.3
2019-03-01T11:38:02.406Z,1002.3
2019-03-01T11:39:04.523Z,1002.4
2019-03-01T11:40:06.693Z,1002.4
2019-03-01T11:41:08.818Z,1002.4
2019-03-01T11:42:10.951Z,1002.4
2019-03-01T11:43:13.109Z,1002.4
2019-03-01T11:44:15.249Z,1002.4
2019-03-01T11:45:17.415Z,1002.4
2019-03-01T11:46:19.523Z,1002.4
2019-03-01T11:47:21.683Z,1002.4
2019-03-01T11:48:23.824Z,1002.4
2019-03-01T11:49:26.755Z,1002.4
2019-03-01T11:50:28.884Z,1002.4
2019-03-01T11:51:31.020Z,1002.4
2019-03-01T11:52:33.492Z,1002.4
2019-03-01T11:53:35.627Z,1002.4
2019-03-01T11:54:38.289Z,1002.5
2019-03-01T11:55:40.414Z,1002.5
2019-03-01T11:56:42.990Z,1002.5
2019-03-01T11:57:45.147Z,1002.5
2019-03-01T11:58:47.256Z,1002.5
2019-03-01T11:59:49.684Z,1002.5
2019-03-01T12:00:52.688Z,1002.6
2019-03-01T12:01:55.109Z,1002.5
2019-03-01T12:02:57.235Z,1002.6
2019-03-01T12:03:59.374Z,1002.5
2019-03-01T12:05:01.796Z,1002.6
2019-03-01T12:06:03.920Z,1002.6
2019-03-01T12:07:06.460Z,1002.6
2019-03-01T12:08:09.251Z,1002.6
2019-03-01T12:09:11.652Z,1002.7
2019-03-01T12:10:13.783Z,1002.7
2019-03-01T12:11:15.897Z,1002.7
2019-03-01T12:12:18.017Z,1002.7
2019-03-01T12:13:20.424Z,1002.7
2019-03-01T12:14:22.710Z,1002.7
2019-03-01T12:15:24.833Z,1002.7
2019-03-01T12:16:26.964Z,1002.7
2019-03-01T12:17:29.123Z,1002.7
2019-03-01T12:18:31.235Z,1002.7
2019-03-01T12:19:33.364Z,1002.8
2019-03-01T12:20:35.484Z,1002.7
2019-03-01T12:21:37.865Z,1002.7
2019-03-01T12:22:40.022Z,1002.7
2019-03-01T12:23:42.133Z,1002.7
2019-03-01T12:24:44.254Z,1002.7
2019-03-01T12:25:46.393Z,1002.6
2019-03-01T12:26:48.498Z,1002.7
2019-03-01T12:27:50.623Z,1002.7
2019-03-01T12:28:52.795Z,1002.6
2019-03-01T12:29:54.956Z,1002.7
2019-03-01T12:30:57.078Z,1002.7
2019-03-01T12:31:59.765Z,1002.7
2019-03-01T12:33:02.267Z,1002.7
2019-03-01T12:34:04.372Z,1002.7
2019-03-01T12:35:06.513Z,1002.7
2019-03-01T12:36:08.637Z,1002.7
2019-03-01T12:37:10.758Z,1002.7
2019-03-01T12:38:12.873Z,1002.7
2019-03-01T12:39:15.013Z,1002.7
2019-03-01T12:40:17.122Z,1002.7
2019-03-01T12:41:19.254Z,1002.7
2019-03-01T12:42:21.383Z,1002.7
2019-03-01T12:43:23.485Z,1002.8
2019-03-01T12:44:25.629Z,1002.7
2019-03-01T12:45:27.740Z,1002.8
2019-03-01T12:46:29.860Z,1002.8
2019-03-01T12:47:31.982Z,1002.8
2019-03-01T12:48:34.118Z,1002.8
2019-03-01T12:49:36.245Z,1002.9
2019-03-01T12:50:38.359Z,1002.8
2019-03-01T12:51:40.474Z,1002.8
2019-03-01T12:52:42.926Z,1002.8
2019-03-01T12:53:45.378Z,1002.8
2019-03-01T12:54:48.048Z,1002.8
2019-03-01T12:55:50.592Z,1002.8
2019-03-01T12:56:52.988Z,1002.8
2019-03-01T12:57:55.099Z,1002.8
2019-03-01T12:58:57.234Z,1002.8
2019-03-01T12:59:59.345Z,1002.8
2019-03-01T13:01:01.619Z,1002.8
2019-03-01T13:02:03.749Z,1002.8
2019-03-01T13:03:10.237Z,1002.8
2019-03-01T13:04:18.561Z,1002.8
2019-03-01T13:05:21.425Z,1002.8
2019-03-01T13:06:31.639Z,1002.8
2019-03-01T13:07:41.738Z,1002.8
2019-03-01T13:08:51.340Z,1002.8
2019-03-01T13:09:54.363Z,1002.8
2019-03-01T13:10:56.474Z,1002.9